• Join FlightAware (Why Join?)
  • Login
  • US Flag 
05:21PM EDT


 

Airport Tracker/Info


-or-


 

Live Flight TrackerFlight Track Log ✈ AR128 ✈ 06-May-2013 ✈ CYXJ - CYXD

Flight Track Log - Related Links

Times and Time Zones

All times are in EDT time to prevent confusion due to time zone crossing. See the AR128 flight status page for this flight to view local times or setup timezone preferences in your user account.

Time Position Orientation Groundspeed Altitude Reporting Facility
EDT Latitude Longitude Course Direction KTS MPH feet Rate Location/Type
05:39PM 56.2167 -120.7833 151° Southeast 30 35 2,300  Level Edmonton Center
05:41PM 56.1781 -120.6600 110° East  Level Estimated
05:41PM 56.2000 -120.7667 110° East 20 23 2,300  Level Edmonton Center
05:43PM 56.1927 -120.6134 110° East  Level FlightAware Approximate
05:43PM 56.2667 -120.8667 110° East 140 161 4,500  Level Edmonton Center
05:45PM 56.2279 -120.7434 110° East  Level Estimated
05:45PM 56.2333 -120.7167 110° East 170 196 7,700  Level Edmonton Center
05:46PM 56.2167 -120.6167 107° East 170 196 9,400 1,560 Climbing Edmonton Center
05:47PM 56.2000 -120.5500 114° Southeast 180 207 10,900 1,380 Climbing Edmonton Center
05:49PM 56.1490 -120.4345 123° Southeast  Level FlightAware Approximate
05:49PM 56.1333 -120.3667 123° Southeast 200 230 13,700  Level Edmonton Center
05:50PM 56.1000 -120.3000 132° Southeast 190 219 14,900 1,020 Climbing Edmonton Center
05:52PM 56.0644 -120.1742 114° Southeast  Level FlightAware Approximate
05:52PM 56.0667 -120.1167 114° Southeast 200 230 16,800  Level Edmonton Center
05:53PM 56.0333 -120.0500 132° Southeast 210 242 18,100 900 Climbing Edmonton Center
05:55PM 56.0012 -119.9214 114° Southeast  Level FlightAware Approximate
05:55PM 55.9667 -119.8333 114° Southeast 220 253 19,500  Level Edmonton Center
05:56PM 55.9500 -119.7333 107° East 210 242 20,300 600 Climbing Edmonton Center
05:57PM 55.9167 -119.6667 132° Southeast 220 253 20,800 300 Climbing Edmonton Center
05:58PM 55.8833 -119.5667 121° Southeast 230 265 21,000 60 Climbing Edmonton Center
05:59PM 55.8500 -119.4500 117° Southeast 250 288 21,000  Level Edmonton Center
06:00PM 55.8167 -119.3500 121° Southeast 260 299 21,000  Level Edmonton Center
06:02PM 55.7847 -119.2221 114° Southeast  Level FlightAware Approximate
06:02PM 55.7333 -119.1000 114° Southeast 270 311 21,000  Level Edmonton Center
06:04PM 55.7106 -118.9636 119° Southeast  Level FlightAware Approximate
06:04PM 55.6833 -118.8667 119° Southeast 260 299 21,000  Level Edmonton Center
06:06PM 55.6452 -118.7446 119° Southeast  Level FlightAware Approximate
06:06PM 55.6000 -118.6167 119° Southeast 260 299 20,800  Level Edmonton Center
06:08PM 55.5619 -118.4949 119° Southeast  Level FlightAware Approximate
06:11PM 55.4333 -118.0667 120° Southeast 260 299 21,000  Level Edmonton Center
06:12PM 55.3833 -117.9667 131° Southeast 260 299 21,000  Level Edmonton Center
06:13PM 55.3500 -117.8667 120° Southeast 260 299 21,000  Level Edmonton Center
06:14PM 55.3167 -117.7333 114° Southeast 250 288 21,000  Level Edmonton Center
06:15PM 55.3432 -117.8079 119° Southeast  Level FlightAware Approximate
06:15PM 55.2833 -117.6333 120° Southeast 260 299 21,000  Level Edmonton Center
06:16PM 55.3116 -117.7104 120° Southeast  Level FlightAware Approximate
06:16PM 55.2500 -117.5333 120° Southeast 250 288 21,000  Level Edmonton Center
06:17PM 55.2800 -117.6131 120° Southeast  Level FlightAware Approximate
06:18PM 55.2114 -117.4130 119° Southeast  Level FlightAware Approximate
06:18PM 55.1833 -117.3333 119° Southeast 250 288 21,000  Level Edmonton Center
06:19PM 55.1500 -117.2000 114° Southeast 250 288 21,000  Level Edmonton Center
06:20PM 55.1000 -117.1000 131° Southeast 250 288 21,000  Level Edmonton Center
06:21PM 55.0833 -117.0000 106° East 250 288 21,100  Climbing Edmonton Center
06:22PM 55.0333 -116.9000 131° Southeast 260 299 21,000 -60 Descending Edmonton Center
06:23PM 55.0000 -116.7667 114° Southeast 260 299 21,000  Level Edmonton Center
06:25PM 54.9589 -116.6497 121° Southeast  Level FlightAware Approximate
06:25PM 54.9333 -116.5667 121° Southeast 260 299 21,000  Level Edmonton Center
06:26PM 54.8833 -116.4667 131° Southeast 250 288 21,000  Level Edmonton Center
06:27PM 54.8500 -116.3333 113° Southeast 260 299 21,000  Level Edmonton Center
06:28PM 54.8167 -116.2333 120° Southeast 250 288 21,000  Level Edmonton Center
06:29PM 54.7833 -116.1333 120° Southeast 250 288 21,000  Level Edmonton Center
06:30PM 54.7500 -116.0333 120° Southeast 250 288 21,000  Level Edmonton Center
06:31PM 54.7000 -115.9333 131° Southeast 260 299 21,000  Level Edmonton Center
06:32PM 54.6667 -115.8000 113° Southeast 260 299 21,000  Level Edmonton Center
06:33PM 54.6333 -115.7000 120° Southeast 250 288 21,000  Level Edmonton Center
06:35PM 54.5940 -115.5851 121° Southeast  Level FlightAware Approximate
06:35PM 54.5500 -115.5000 121° Southeast 250 288 21,000  Level Edmonton Center
06:37PM 54.5151 -115.3811 117° Southeast  Level FlightAware Approximate
06:38PM 54.4500 -115.2167 120° Southeast 250 288 21,000  Level Edmonton Center
06:39PM 54.3833 -115.1167 139° Southeast 240 276 21,000  Level Edmonton Center
06:40PM 54.3333 -115.0333 136° Southeast 240 276 21,000  Level Edmonton Center
06:41PM 54.3000 -114.9333 120° Southeast 240 276 21,000 -60 Level Edmonton Center
06:42PM 54.2500 -114.8333 131° Southeast 250 288 20,900 -420 Descending Edmonton Center
06:44PM 54.2907 -114.7337 120° Southeast  Level FlightAware Approximate
06:44PM 54.2500 -114.7010 90° East  Level FlightAware Approximate
06:44PM 54.1500 -114.6667 90° East 270 311 19,800  Level Edmonton Center
06:46PM 54.1583 -114.5354 84° East  Level FlightAware Approximate
06:46PM 54.0500 -114.4667 84° East 280 322 17,300  Level Edmonton Center
06:47PM 54.0000 -114.3667 130° Southeast 280 322 16,000 -1,320 Descending Edmonton Center
06:48PM 53.9333 -114.2667 139° Southeast 280 322 14,700 -1,380 Descending Edmonton Center
06:49PM 53.8833 -114.1667 130° Southeast 270 311 13,300 -1,320 Descending Edmonton Center
06:50PM 53.8333 -114.0667 130° Southeast 260 299 12,100 -1,080 Descending Edmonton Center
06:51PM 53.8000 -114.0000 130° Southeast 250 288 11,200 -1,020 Descending Edmonton Center
06:52PM 53.7500 -113.9167 135° Southeast 240 276 10,100 -1,200 Descending Edmonton Center
06:53PM 53.7000 -113.8167 130° Southeast 230 265 8,900 -1,320 Descending Edmonton Center
06:54PM 53.6667 -113.7500 130° Southeast 210 242 7,500 -1,500 Descending Edmonton Center
06:55PM 53.6333 -113.6833 130° Southeast 180 207 6,000 -1,440 Descending Edmonton Center
06:57PM 53.5913 -113.5659 130° Southeast  Level FlightAware Approximate
06:57PM 53.5833 -113.5833 130° Southeast 110 127 3,200  Level Edmonton Center
06:58PM 53.5500 -113.5500 149° Southeast 100 115 2,500 -720 Descending Edmonton Center
07:00PM 53.5667 -113.5167 130° Southeast  Level FlightAware Approximate
07:07PM 53.5725 -113.5206 130° Southeast  Level Estimated
07:08PM 53.5667 -113.5167 130° Southeast  Level FlightAware Approximate
07:09PM 53.5725 -113.5206 130° Southeast  Level Estimated
07:10PM 53.5667 -113.5167 130° Southeast  Level FlightAware Approximate
07:11PM 53.5725 -113.5206 130° Southeast  Level Estimated
07:12PM 53.5667 -113.5167 130° Southeast  Level FlightAware Approximate
07:13PM 53.5725 -113.5206 130° Southeast  Level Estimated
07:14PM 53.5667 -113.5167 130° Southeast  Level FlightAware Approximate